Time;durP1;ratioP1;P1;durP2;ratioP2;P2;SDS_P1;SDS_P2;PMS_P1;PMS_P2;Temp;Humidity;BMP_temperature;BMP_pressure;BME280_temperature;BME280_humidity;BME280_pressure;Samples;Min_cycle;Max_cycle;Signal;HPM_P1;HPM_P2
2022/05/09 00:01:23;;;;;;;;;17.00;16.33;;;;;19.15;47.18;101675.22;5074825;27;45552;-61
2022/05/09 00:03:50;;;;;;;;;19.00;18.00;;;;;19.11;47.22;101669.19;5048008;28;45556;-61
2022/05/09 00:06:15;;;;;;;;;18.67;16.33;;;;;19.12;46.73;101667.38;5067654;28;45510;-61
2022/05/09 00:08:42;;;;;;;;;17.00;16.00;;;;;19.05;46.84;101653.53;5065710;28;45535;-61
2022/05/09 00:11:09;;;;;;;;;20.00;18.33;;;;;19.06;46.84;101673.91;5052309;28;48092;-60
2022/05/09 00:13:37;;;;;;;;;20.67;16.67;;;;;19.03;46.90;101671.41;5071288;28;45481;-60
2022/05/09 00:16:03;;;;;;;;;17.33;17.33;;;;;18.96;46.69;101670.00;5072567;28;45665;-61
2022/05/09 00:18:29;;;;;;;;;19.33;16.00;;;;;18.98;46.57;101676.97;5051609;28;45585;-61
2022/05/09 00:20:56;;;;;;;;;17.67;17.67;;;;;18.97;46.66;101672.59;5065503;28;45624;-61
2022/05/09 00:23:22;;;;;;;;;15.00;15.00;;;;;18.91;46.45;101661.38;5050282;28;45527;-61
2022/05/09 00:25:48;;;;;;;;;14.33;14.33;;;;;18.86;46.73;101661.66;5054597;28;45446;-61
2022/05/09 00:28:15;;;;;;;;;15.00;15.00;;;;;18.89;46.83;101673.97;5073293;28;45498;-59
2022/05/09 00:30:41;;;;;;;;;15.67;15.67;;;;;18.87;47.09;101667.84;5070454;28;47182;-60
2022/05/09 00:33:06;;;;;;;;;15.67;14.00;;;;;18.86;46.94;101668.75;5068287;28;45521;-60
2022/05/09 00:35:33;;;;;;;;;16.00;16.00;;;;;18.81;46.70;101668.19;5055856;28;45423;-59
2022/05/09 00:37:59;;;;;;;;;15.00;14.33;;;;;18.75;46.76;101670.22;5054583;28;45604;-61
2022/05/09 00:40:27;;;;;;;;;16.33;15.33;;;;;18.70;46.85;101669.56;5072422;28;45827;-60
2022/05/09 00:42:54;;;;;;;;;18.67;18.33;;;;;18.66;47.37;101665.31;5052061;28;45508;-60
2022/05/09 00:45:24;;;;;;;;;12.00;12.00;;;;;18.65;47.24;101671.59;5067665;27;45565;-60
2022/05/09 00:47:50;;;;;;;;;13.33;13.33;;;;;18.64;46.90;101671.66;5068392;28;45554;-60
2022/05/09 00:50:26;;;;;;;;;17.33;16.00;;;;;18.57;47.30;101667.63;5063044;28;45992;-60
2022/05/09 00:53:03;;;;;;;;;16.00;14.00;;;;;18.52;47.06;101679.34;5064874;28;45608;-60
2022/05/09 00:55:45;;;;;;;;;16.00;16.00;;;;;18.50;47.14;101670.56;5072772;28;45426;-60
2022/05/09 00:58:39;;;;;;;;;14.00;14.00;;;;;18.46;47.08;101676.16;5069413;28;45494;-60
2022/05/09 01:01:08;;;;;;;;;16.67;15.67;;;;;18.37;47.31;101666.81;5074320;27;46041;-60
2022/05/09 01:03:41;;;;;;;;;14.67;14.00;;;;;18.31;46.87;101672.47;5076303;27;45509;-60
2022/05/09 01:06:07;;;;;;;;;15.33;14.67;;;;;18.26;47.33;101669.16;5076813;28;45428;-60
2022/05/09 01:08:34;;;;;;;;;13.33;13.33;;;;;18.24;47.17;101671.94;5089902;27;45607;-61
2022/05/09 01:11:16;;;;;;;;;12.67;12.00;;;;;18.25;47.24;101673.63;5082039;27;45551;-60
2022/05/09 01:13:48;;;;;;;;;15.00;14.00;;;;;18.21;47.08;101665.88;5092340;27;46199;-60
2022/05/09 01:16:30;;;;;;;;;11.67;11.67;;;;;18.18;47.13;101669.53;5093983;27;45476;-60
2022/05/09 01:18:59;;;;;;;;;15.33;13.67;;;;;18.22;47.11;101663.16;5076277;27;45494;-61
2022/05/09 01:21:37;;;;;;;;;14.00;14.00;;;;;18.14;47.04;101660.00;5076117;27;45609;-61
2022/05/09 01:24:08;;;;;;;;;14.33;13.67;;;;;18.14;47.29;101661.81;5083448;27;45386;-58
2022/05/09 01:26:34;;;;;;;;;13.67;13.00;;;;;18.15;47.19;101663.53;5079825;27;45516;-58
2022/05/09 01:29:05;;;;;;;;;14.33;13.00;;;;;18.10;46.99;101669.94;5084698;27;45531;-60
2022/05/09 01:31:31;;;;;;;;;12.00;12.00;;;;;18.11;47.06;101670.81;5076043;28;45484;-61
2022/05/09 01:33:59;;;;;;;;;11.00;10.67;;;;;18.05;47.12;101668.44;5080153;27;45505;-61
2022/05/09 01:36:28;;;;;;;;;9.00;8.00;;;;;18.04;47.18;101669.38;5074733;28;45391;-60
2022/05/09 01:39:02;;;;;;;;;14.33;13.00;;;;;17.97;47.26;101663.47;5079685;27;45602;-60
2022/05/09 01:41:29;;;;;;;;;10.67;9.67;;;;;17.94;46.63;101663.63;5087362;27;47559;-60
2022/05/09 01:43:55;;;;;;;;;12.00;12.00;;;;;17.94;46.92;101665.44;5085932;27;45614;-61
2022/05/09 01:46:26;;;;;;;;;10.50;9.00;;;;;17.92;46.95;101662.88;5083055;27;45493;-61
2022/05/09 01:51:39;;;;;;;;;10.67;10.67;;;;;17.95;46.95;101669.84;5092384;27;45575;-61
2022/05/09 01:54:04;;;;;;;;;9.00;9.00;;;;;17.95;46.71;101664.53;5083672;27;45583;-59
2022/05/09 01:56:34;;;;;;;;;9.00;8.33;;;;;17.88;46.62;101653.31;5088329;27;45886;-61
2022/05/09 01:59:00;;;;;;;;;10.67;10.00;;;;;17.85;46.53;101651.66;5090590;27;45512;-60
2022/05/09 02:01:34;;;;;;;;;11.00;11.00;;;;;17.80;46.91;101656.34;5085449;27;46253;-61
2022/05/09 02:03:59;;;;;;;;;8.33;8.33;;;;;17.80;46.52;101650.16;5089266;27;45558;-60
2022/05/09 02:06:25;;;;;;;;;9.33;9.00;;;;;17.78;46.75;101654.66;5094784;27;45483;-61
2022/05/09 02:08:50;;;;;;;;;10.00;10.00;;;;;17.80;46.26;101660.81;5090435;27;45539;-60
2022/05/09 02:11:16;;;;;;;;;9.00;7.33;;;;;17.86;46.30;101660.50;5093759;27;45471;-60
2022/05/09 02:13:42;;;;;;;;;10.33;9.00;;;;;17.82;46.44;101651.81;5095525;27;45550;-60
2022/05/09 02:16:07;;;;;;;;;8.00;7.00;;;;;17.74;46.70;101656.59;5096023;27;45480;-60
2022/05/09 02:18:34;;;;;;;;;8.67;8.67;;;;;17.79;46.67;101653.78;5095952;27;45643;-60
2022/05/09 02:20:59;;;;;;;;;8.67;8.33;;;;;17.73;45.95;101640.72;5094681;27;45501;-60
2022/05/09 02:23:24;;;;;;;;;8.00;8.00;;;;;17.76;46.19;101652.09;5095520;27;45469;-60
2022/05/09 02:25:50;;;;;;;;;7.67;7.33;;;;;17.77;46.28;101651.13;5089004;27;45559;-61
2022/05/09 02:28:16;;;;;;;;;8.00;8.00;;;;;17.73;46.24;101652.25;5093480;27;45537;-61
2022/05/09 02:30:42;;;;;;;;;7.00;7.00;;;;;17.70;46.43;101641.72;5093722;27;45550;-61
2022/05/09 02:33:09;;;;;;;;;9.00;7.67;;;;;17.72;45.91;101646.97;5094773;27;45617;-60
2022/05/09 02:35:36;;;;;;;;;11.67;9.33;;;;;17.73;46.30;101644.25;5094198;27;45542;-60
2022/05/09 02:38:02;;;;;;;;;10.33;8.00;;;;;17.71;46.53;101648.78;5089665;27;45546;-60
2022/05/09 02:40:27;;;;;;;;;8.00;8.00;;;;;17.70;46.20;101648.84;5079839;27;46170;-60
2022/05/09 02:42:53;;;;;;;;;5.33;5.33;;;;;17.72;46.25;101654.97;5090467;27;45551;-60
2022/05/09 02:45:20;;;;;;;;;12.67;9.67;;;;;17.68;45.74;101646.28;5075041;28;45491;-60
2022/05/09 02:47:46;;;;;;;;;9.00;9.00;;;;;17.58;46.02;101642.31;5075117;27;45445;-60
2022/05/09 02:50:14;;;;;;;;;8.33;8.00;;;;;17.54;46.49;101646.06;5074774;28;45472;-60
2022/05/09 02:52:40;;;;;;;;;7.67;7.67;;;;;17.48;46.06;101639.22;5076134;27;45441;-60
2022/05/09 02:55:08;;;;;;;;;9.67;9.67;;;;;17.48;46.05;101636.56;5080694;27;45476;-60
2022/05/09 02:57:35;;;;;;;;;11.00;10.33;;;;;17.43;46.59;101638.59;5087637;27;45638;-60
2022/05/09 03:00:00;;;;;;;;;9.00;9.00;;;;;17.39;46.68;101634.38;5078344;27;46181;-60
2022/05/09 03:02:26;;;;;;;;;9.67;7.67;;;;;17.40;46.14;101631.59;5072708;28;45501;-60
2022/05/09 03:04:52;;;;;;;;;9.33;9.33;;;;;17.40;46.62;101628.09;5055306;28;45606;-60
2022/05/09 03:07:19;;;;;;;;;8.67;8.67;;;;;17.38;46.45;101633.50;5058920;28;45520;-60
2022/05/09 03:09:49;;;;;;;;;10.67;10.67;;;;;17.37;46.67;101631.75;5074646;28;46312;-60
2022/05/09 03:12:18;;;;;;;;;10.00;8.00;;;;;17.33;46.59;101637.28;5073496;28;45433;-59
2022/05/09 03:14:44;;;;;;;;;10.00;10.00;;;;;17.23;46.96;101635.06;5073154;28;45726;-60
2022/05/09 03:17:10;;;;;;;;;8.00;8.00;;;;;17.22;46.86;101640.44;5074241;28;45410;-59
2022/05/09 03:19:35;;;;;;;;;8.00;7.33;;;;;17.16;46.98;101638.09;5067564;28;45992;-60
2022/05/09 03:22:01;;;;;;;;;11.00;11.00;;;;;17.10;47.16;101625.09;5053947;28;45787;-60
2022/05/09 03:24:26;;;;;;;;;11.67;8.00;;;;;17.17;47.05;101635.38;5053734;28;45954;-59
2022/05/09 03:26:52;;;;;;;;;10.00;8.00;;;;;17.18;46.58;101621.13;5054961;28;45450;-59
2022/05/09 03:29:19;;;;;;;;;10.00;9.00;;;;;17.27;46.56;101634.94;5053519;28;45687;-59
2022/05/09 03:31:46;;;;;;;;;8.00;7.67;;;;;17.17;47.18;101630.06;5062593;28;45560;-60
2022/05/09 03:34:12;;;;;;;;;11.00;8.00;;;;;17.11;46.74;101637.44;5053867;28;45580;-59
2022/05/09 03:36:38;;;;;;;;;10.00;8.33;;;;;17.07;46.95;101635.88;5053649;28;45629;-59
2022/05/09 03:39:04;;;;;;;;;10.00;9.33;;;;;17.10;46.92;101630.41;5053694;28;45975;-59
2022/05/09 03:41:30;;;;;;;;;10.33;10.33;;;;;17.10;47.01;101628.59;5061913;28;45464;-60
2022/05/09 03:43:55;;;;;;;;;10.33;10.33;;;;;17.10;47.46;101623.28;5055908;28;45477;-60
2022/05/09 03:46:21;;;;;;;;;8.00;8.00;;;;;17.14;46.88;101631.97;5073975;28;45609;-60
2022/05/09 03:48:46;;;;;;;;;9.00;9.00;;;;;17.06;47.43;101626.16;5073741;28;45516;-60
2022/05/09 03:51:11;;;;;;;;;12.00;12.00;;;;;17.07;47.25;101630.53;5073906;28;45489;-60
2022/05/09 03:53:37;;;;;;;;;10.67;10.67;;;;;17.02;47.12;101630.75;5073285;28;45423;-60
2022/05/09 03:56:02;;;;;;;;;12.67;10.33;;;;;16.97;47.16;101628.28;5073075;28;46325;-60
2022/05/09 03:58:28;;;;;;;;;10.67;10.67;;;;;16.99;47.65;101628.25;5073478;28;45922;-60
2022/05/09 04:00:54;;;;;;;;;11.33;9.33;;;;;16.95;47.56;101616.91;5081055;27;45675;-61
2022/05/09 04:03:20;;;;;;;;;11.67;9.33;;;;;17.02;47.53;101635.22;5093171;27;45517;-60
2022/05/09 04:05:45;;;;;;;;;11.33;10.67;;;;;17.05;47.58;101635.06;5094373;27;45383;-60
2022/05/09 04:08:16;;;;;;;;;9.67;8.00;;;;;17.10;47.39;101628.59;5094054;27;45530;-60
2022/05/09 04:10:42;;;;;;;;;11.00;9.00;;;;;17.07;47.25;101628.75;5094405;27;45461;-60
2022/05/09 04:13:07;;;;;;;;;12.00;11.33;;;;;17.06;47.45;101629.69;5094057;27;45590;-59
2022/05/09 04:18:17;;;;;;;;;11.33;10.00;;;;;17.12;47.33;101634.72;5090729;27;45815;-60
2022/05/09 04:20:45;;;;;;;;;11.67;10.33;;;;;17.08;47.74;101619.81;5093784;27;45457;-60
2022/05/09 04:23:10;;;;;;;;;14.67;13.00;;;;;17.13;47.88;101632.91;5077717;27;45483;-60
2022/05/09 04:25:36;;;;;;;;;11.33;10.67;;;;;17.17;47.74;101634.50;5078278;27;45389;-60
2022/05/09 04:28:05;;;;;;;;;12.67;12.00;;;;;17.07;47.52;101630.53;5108962;27;45438;-60
2022/05/09 04:30:32;;;;;;;;;12.33;11.33;;;;;16.99;47.79;101630.91;5093565;27;45446;-61
2022/05/09 04:32:57;;;;;;;;;11.33;9.67;;;;;17.02;48.05;101637.88;5093806;27;45465;-60
2022/05/09 04:35:24;;;;;;;;;10.00;10.00;;;;;17.00;47.65;101621.97;5096319;27;45484;-60
2022/05/09 04:37:53;;;;;;;;;12.00;11.00;;;;;17.04;48.31;101628.88;5095959;27;45983;-60
2022/05/09 04:40:24;;;;;;;;;12.00;11.33;;;;;17.01;47.51;101626.38;5087053;27;45528;-59
2022/05/09 04:42:50;;;;;;;;;10.67;10.00;;;;;16.91;48.25;101617.09;5076778;28;45529;-59
2022/05/09 04:45:16;;;;;;;;;15.00;11.33;;;;;16.95;48.45;101619.56;5088930;27;45726;-59
2022/05/09 04:47:43;;;;;;;;;12.67;11.00;;;;;17.00;48.32;101630.81;5090627;27;45514;-61
2022/05/09 04:50:12;;;;;;;;;11.00;11.00;;;;;17.02;48.22;101632.56;5097314;27;45546;-60
2022/05/09 04:52:37;;;;;;;;;13.00;13.00;;;;;17.02;47.64;101635.22;5095968;27;45457;-60
2022/05/09 04:55:03;;;;;;;;;12.67;12.33;;;;;16.95;48.26;101626.63;5095165;27;45471;-60
2022/05/09 04:57:29;;;;;;;;;13.00;12.33;;;;;16.97;47.70;101632.75;5089602;27;47750;-60
2022/05/09 04:59:54;;;;;;;;;11.67;10.67;;;;;16.98;48.19;101632.69;5094896;27;45609;-60
2022/05/09 05:02:19;;;;;;;;;13.00;11.33;;;;;16.96;48.18;101631.91;5094398;27;45568;-60
2022/05/09 05:04:45;;;;;;;;;10.67;10.33;;;;;16.97;47.99;101625.63;5095856;27;45443;-60
2022/05/09 05:07:10;;;;;;;;;12.00;12.00;;;;;16.93;48.19;101631.19;5092188;27;46092;-60
2022/05/09 05:09:36;;;;;;;;;13.00;12.67;;;;;16.93;48.16;101632.03;5096753;27;45595;-60
2022/05/09 05:12:02;;;;;;;;;12.33;12.00;;;;;16.94;48.52;101633.75;5095649;27;45458;-60
2022/05/09 05:14:27;;;;;;;;;11.67;11.67;;;;;16.95;48.44;101635.50;5095824;27;45584;-61
2022/05/09 05:16:59;;;;;;;;;17.00;15.33;;;;;16.94;47.91;101630.22;5095264;27;47479;-60
2022/05/09 05:19:24;;;;;;;;;12.00;12.00;;;;;16.97;48.09;101636.25;5094877;27;45499;-60
2022/05/09 05:21:50;;;;;;;;;13.00;13.00;;;;;16.96;48.10;101642.53;5092122;27;45618;-60
2022/05/09 05:24:15;;;;;;;;;12.33;11.00;;;;;16.94;48.03;101641.72;5095472;27;45554;-61
2022/05/09 05:26:40;;;;;;;;;15.00;13.00;;;;;16.99;48.60;101642.38;5081834;27;45601;-60
2022/05/09 05:29:06;;;;;;;;;14.00;14.00;;;;;16.99;48.15;101639.72;5076559;27;45449;-61
2022/05/09 05:31:31;;;;;;;;;15.00;13.67;;;;;16.96;48.61;101626.56;5093972;27;45479;-62
2022/05/09 05:33:57;;;;;;;;;11.33;11.33;;;;;17.06;48.49;101642.09;5078452;27;45605;-61
2022/05/09 05:36:22;;;;;;;;;15.33;13.67;;;;;17.07;47.58;101646.50;5077790;27;45472;-61
2022/05/09 05:38:51;;;;;;;;;15.00;12.67;;;;;17.04;48.09;101636.00;5079088;27;45506;-61
2022/05/09 05:41:18;;;;;;;;;18.00;15.00;;;;;17.00;47.67;101644.09;5093969;27;45675;-62
2022/05/09 05:43:44;;;;;;;;;15.33;12.67;;;;;16.91;47.85;101638.34;5093745;27;45645;-62
2022/05/09 05:46:11;;;;;;;;;11.33;11.00;;;;;16.92;48.05;101648.91;5092796;27;46244;-62
2022/05/09 05:48:37;;;;;;;;;14.00;13.67;;;;;16.91;49.04;101649.84;5094737;27;45432;-62
2022/05/09 05:51:02;;;;;;;;;14.67;14.67;;;;;16.88;48.32;101639.34;5095187;27;45558;-62
2022/05/09 05:53:28;;;;;;;;;17.33;14.67;;;;;16.96;48.61;101650.50;5091465;27;45456;-62
2022/05/09 05:55:54;;;;;;;;;12.67;12.00;;;;;16.97;49.07;101652.22;5094623;27;46082;-62
2022/05/09 05:58:19;;;;;;;;;17.67;16.33;;;;;16.98;47.95;101648.63;5095491;27;45587;-62
2022/05/09 06:00:45;;;;;;;;;16.00;15.00;;;;;17.02;48.93;101643.19;5095035;27;45427;-61
2022/05/09 06:03:10;;;;;;;;;15.33;14.00;;;;;16.97;48.56;101641.56;5093595;27;45658;-62
2022/05/09 06:05:36;;;;;;;;;17.00;16.00;;;;;16.95;48.20;101643.47;5093389;27;46098;-62
2022/05/09 06:08:01;;;;;;;;;15.67;14.00;;;;;16.95;48.96;101645.25;5094254;27;45480;-60
2022/05/09 06:10:30;;;;;;;;;17.67;15.67;;;;;16.99;48.72;101650.34;5092992;27;45705;-60
2022/05/09 06:12:56;;;;;;;;;15.00;15.00;;;;;16.98;48.38;101651.28;5092294;27;46079;-60
2022/05/09 06:15:54;;;;;;;;;17.33;14.00;;;;;17.00;48.54;101659.19;5076083;27;47192;-60
2022/05/09 06:18:13;;;;;;;;;15.67;13.67;;;;;17.04;48.40;101657.28;5078130;27;45582;-64
2022/05/09 06:20:40;;;;;;;;;15.33;14.00;;;;;17.05;48.49;101654.53;5094742;27;45425;-61
2022/05/09 06:23:08;;;;;;;;;15.00;15.00;;;;;17.13;48.04;101660.34;5085449;27;45564;-63
2022/05/09 06:25:34;;;;;;;;;14.33;13.67;;;;;17.18;48.54;101662.81;5077568;27;45658;-63
2022/05/09 06:28:19;;;;;;;;;16.67;15.00;;;;;17.19;48.28;101653.88;5095077;27;45476;-63
2022/05/09 06:30:45;;;;;;;;;12.33;12.33;;;;;17.24;48.18;101659.84;5093621;27;45562;-64
2022/05/09 06:33:11;;;;;;;;;16.00;16.00;;;;;17.22;48.18;101653.75;5090614;27;45519;-64
2022/05/09 06:35:43;;;;;;;;;18.67;17.33;;;;;17.28;47.60;101658.78;5092161;27;45799;-64
2022/05/09 06:38:14;;;;;;;;;18.00;16.67;;;;;17.25;47.86;101652.72;5093332;27;45564;-62
2022/05/09 06:40:40;;;;;;;;;18.00;16.67;;;;;17.32;48.20;101671.00;5093760;27;45335;-63
2022/05/09 06:43:06;;;;;;;;;16.33;16.33;;;;;17.36;48.31;101667.28;5093114;27;45576;-63
2022/05/09 06:45:33;;;;;;;;;15.67;14.67;;;;;17.41;47.81;101667.06;5093649;27;46033;-63
2022/05/09 06:47:58;;;;;;;;;13.33;13.33;;;;;17.45;48.12;101666.84;5095376;27;45483;-64
2022/05/09 06:50:28;;;;;;;;;14.33;13.67;;;;;17.47;48.00;101677.41;5093736;27;45729;-63
2022/05/09 06:52:53;;;;;;;;;16.33;16.00;;;;;17.48;47.95;101678.28;5079896;27;45347;-64
2022/05/09 06:55:18;;;;;;;;;15.67;14.33;;;;;17.51;47.54;101684.28;5094686;27;46281;-64
2022/05/09 06:57:45;;;;;;;;;21.00;19.33;;;;;17.45;47.97;101676.63;5093585;27;45487;-63
2022/05/09 07:00:17;;;;;;;;;18.00;18.00;;;;;17.48;47.77;101687.09;5091062;27;45530;-64
2022/05/09 07:02:42;;;;;;;;;19.33;19.33;;;;;17.49;47.55;101682.63;5092114;27;45573;-63
2022/05/09 07:05:11;;;;;;;;;16.00;16.00;;;;;17.48;47.69;101675.59;5092276;27;45828;-63
2022/05/09 07:07:36;;;;;;;;;17.00;15.67;;;;;17.57;47.74;101680.47;5094352;27;45590;-63
2022/05/09 07:10:03;;;;;;;;;17.00;17.00;;;;;17.61;47.43;101674.94;5094161;27;45454;-62
2022/05/09 07:12:28;;;;;;;;;21.33;21.33;;;;;17.60;47.61;101677.72;5092049;27;45480;-63
2022/05/09 07:14:53;;;;;;;;;17.67;17.67;;;;;17.59;47.43;101684.78;5093180;27;45468;-63
2022/05/09 07:17:19;;;;;;;;;19.00;18.00;;;;;17.65;47.10;101673.00;5094413;27;45452;-63
2022/05/09 07:19:44;;;;;;;;;19.67;16.33;;;;;17.69;47.41;101673.72;5094852;27;45517;-64
2022/05/09 07:22:10;;;;;;;;;21.67;21.33;;;;;17.73;47.62;101670.88;5094622;27;45621;-63
2022/05/09 07:24:35;;;;;;;;;20.67;19.33;;;;;17.78;47.38;101674.13;5094092;27;45592;-63
2022/05/09 07:27:01;;;;;;;;;19.67;19.67;;;;;17.81;47.22;101667.84;5089724;27;45639;-63
2022/05/09 07:29:26;;;;;;;;;21.33;18.33;;;;;17.82;47.91;101670.44;5089620;27;47582;-64
2022/05/09 07:31:51;;;;;;;;;23.67;22.00;;;;;17.88;47.74;101669.28;5094630;27;45478;-63
2022/05/09 07:34:17;;;;;;;;;21.67;21.00;;;;;17.92;47.27;101680.63;5086087;27;45579;-63
2022/05/09 07:36:42;;;;;;;;;22.33;21.33;;;;;17.95;47.31;101680.50;5087932;27;45484;-63
2022/05/09 07:39:08;;;;;;;;;21.00;20.00;;;;;17.99;47.46;101677.59;5094762;27;45606;-63
2022/05/09 07:41:34;;;;;;;;;22.00;22.00;;;;;17.98;46.92;101667.03;5093126;27;45635;-63
2022/05/09 07:43:59;;;;;;;;;21.33;20.33;;;;;18.05;46.92;101679.09;5090952;27;45623;-63
2022/05/09 07:46:25;;;;;;;;;23.00;22.33;;;;;18.13;46.91;101673.38;5091539;27;45908;-63
2022/05/09 07:48:52;;;;;;;;;19.33;19.33;;;;;18.13;47.47;101673.38;5093772;27;45497;-63
2022/05/09 07:51:18;;;;;;;;;20.00;17.67;;;;;18.20;47.42;101674.81;5093786;27;45627;-63
2022/05/09 07:53:44;;;;;;;;;22.67;21.67;;;;;18.25;47.26;101673.63;5094239;27;47497;-63
2022/05/09 07:56:10;;;;;;;;;25.33;24.33;;;;;18.26;47.11;101675.34;5094069;27;45549;-63
2022/05/09 07:58:35;;;;;;;;;18.00;18.00;;;;;18.28;47.27;101667.28;5093711;27;45528;-64
2022/05/09 08:01:03;;;;;;;;;24.00;23.00;;;;;18.32;47.29;101675.06;5092435;27;45417;-63
2022/05/09 08:03:31;;;;;;;;;22.00;21.33;;;;;18.36;47.59;101669.56;5093908;27;45549;-64
2022/05/09 08:05:59;;;;;;;;;32.67;28.00;;;;;18.39;47.35;101672.06;5091426;27;45475;-63
2022/05/09 08:08:28;;;;;;;;;26.67;25.00;;;;;18.41;47.42;101670.22;5073069;27;45570;-63
2022/05/09 08:10:55;;;;;;;;;23.33;22.33;;;;;18.46;47.19;101673.50;5085043;27;45531;-64
2022/05/09 08:13:21;;;;;;;;;24.33;23.00;;;;;18.46;47.13;101673.50;5093212;27;45425;-64
2022/05/09 08:15:48;;;;;;;;;22.33;21.00;;;;;18.46;46.83;101670.84;5092659;27;45610;-64
2022/05/09 08:18:14;;;;;;;;;17.67;17.67;;;;;18.49;47.03;101676.84;5092620;27;45850;-64
2022/05/09 08:20:43;;;;;;;;;19.33;19.33;;;;;18.55;46.79;101670.34;5093993;27;45398;-64
2022/05/09 08:23:10;;;;;;;;;45.33;39.00;;;;;18.59;47.24;101671.94;5093710;27;45959;-63
2022/05/09 08:25:39;;;;;;;;;25.00;23.33;;;;;18.65;46.63;101668.09;5086508;27;45629;-63
2022/05/09 08:28:05;;;;;;;;;24.33;23.00;;;;;18.66;47.02;101672.47;5091699;27;45464;-65
2022/05/09 08:30:34;;;;;;;;;28.33;22.33;;;;;18.72;46.97;101672.13;5092826;27;45630;-64
2022/05/09 08:33:04;;;;;;;;;27.67;23.00;;;;;18.72;47.01;101672.97;5090713;27;46219;-63
2022/05/09 08:35:31;;;;;;;;;25.67;23.33;;;;;18.71;46.60;101665.09;5092512;27;45497;-63
2022/05/09 08:37:57;;;;;;;;;31.00;29.33;;;;;18.79;46.81;101675.38;5093751;27;45534;-64
2022/05/09 08:40:33;;;;;;;;;25.33;25.33;;;;;18.81;46.47;101669.03;5092006;27;45452;-64
2022/05/09 08:43:29;;;;;;;;;21.00;20.00;;;;;18.86;47.17;101671.44;5088471;27;46170;-64
2022/05/09 08:46:09;;;;;;;;;22.67;21.67;;;;;18.90;47.21;101670.34;5070657;27;45460;-63
2022/05/09 08:49:03;;;;;;;;;26.33;26.33;;;;;18.92;46.52;101677.31;5093524;27;45483;-64
2022/05/09 08:51:38;;;;;;;;;28.33;26.33;;;;;18.98;46.49;101673.47;5092178;27;45463;-64
2022/05/09 08:54:08;;;;;;;;;27.67;27.00;;;;;19.01;46.86;101657.28;5089252;27;46233;-63
2022/05/09 08:56:34;;;;;;;;;25.00;23.33;;;;;18.98;46.80;101652.13;5072908;28;45507;-63
2022/05/09 08:59:12;;;;;;;;;23.00;21.67;;;;;19.11;46.57;101663.84;5086757;27;45516;-65
2022/05/09 09:01:53;;;;;;;;;25.33;25.00;;;;;19.17;46.77;101660.00;5090932;27;45536;-63
2022/05/09 09:04:21;;;;;;;;;29.00;28.67;;;;;19.19;46.26;101658.97;5090758;27;46545;-64
2022/05/09 09:07:07;;;;;;;;;26.33;24.67;;;;;19.24;46.02;101658.72;5084606;27;45537;-64
2022/05/09 09:09:53;;;;;;;;;28.67;28.67;;;;;19.30;46.04;101661.03;5090017;27;45464;-64
2022/05/09 09:13:00;;;;;;;;;32.00;30.33;;;;;19.36;46.26;101662.50;5093123;27;45465;-64
2022/05/09 09:15:34;;;;;;;;;31.33;30.00;;;;;19.40;45.71;101661.41;5077623;27;46197;-63
2022/05/09 09:18:08;;;;;;;;;33.00;30.33;;;;;19.40;45.58;101659.59;5079192;27;45493;-64
2022/05/09 09:20:57;;;;;;;;;29.67;28.33;;;;;19.36;45.49;101647.34;5089424;27;45549;-64
2022/05/09 09:23:31;;;;;;;;;28.33;24.33;;;;;19.52;45.52;101652.69;5087284;27;45491;-64
2022/05/09 09:26:02;;;;;;;;;27.00;25.67;;;;;19.56;45.92;101645.41;5095543;27;45493;-64
2022/05/09 09:28:52;;;;;;;;;30.00;29.67;;;;;19.56;45.86;101638.25;5096473;27;45570;-64
2022/05/09 09:31:28;;;;;;;;;31.33;29.00;;;;;19.57;45.67;101634.63;5093288;27;45573;-64
2022/05/09 09:34:14;;;;;;;;;28.00;27.67;;;;;19.65;45.28;101645.72;5096460;27;45475;-63
2022/05/09 09:36:48;;;;;;;;;31.00;29.00;;;;;19.67;45.72;101643.03;5095486;27;45985;-64
2022/05/09 09:39:17;;;;;;;;;30.33;29.67;;;;;19.73;45.85;101645.31;5095751;27;45450;-64
2022/05/09 09:41:43;;;;;;;;;30.33;29.33;;;;;19.79;45.41;101649.44;5091718;27;45574;-64
2022/05/09 09:44:18;;;;;;;;;31.00;29.00;;;;;19.82;45.64;101652.78;5094764;27;45937;-64
2022/05/09 09:47:04;;;;;;;;;26.67;25.67;;;;;19.86;45.50;101658.84;5095540;27;45538;-63
2022/05/09 09:49:31;;;;;;;;;29.33;28.33;;;;;19.91;46.11;101653.22;5095291;27;45545;-62
2022/05/09 09:51:57;;;;;;;;;26.00;26.00;;;;;19.95;45.93;101658.31;5092839;27;45480;-62
2022/05/09 09:54:28;;;;;;;;;37.00;30.67;;;;;19.97;45.88;101659.06;5090747;27;45616;-63
2022/05/09 09:56:54;;;;;;;;;31.67;28.67;;;;;20.01;45.08;101646.41;5082715;27;46473;-63
2022/05/09 09:59:20;;;;;;;;;30.67;28.67;;;;;20.03;45.46;101641.84;5085585;27;45363;-62
2022/05/09 10:02:01;;;;;;;;;32.33;29.00;;;;;20.06;44.74;101645.19;5081648;27;46099;-63
2022/05/09 10:04:28;;;;;;;;;26.33;25.00;;;;;20.02;44.17;101630.31;5079310;27;45469;-63
2022/05/09 10:06:59;;;;;;;;;31.33;30.33;;;;;20.16;44.18;101636.63;5095670;27;46415;-63
2022/05/09 10:09:27;;;;;;;;;29.33;29.00;;;;;20.18;44.47;101640.94;5092299;27;45731;-66
2022/05/09 10:11:53;;;;;;;;;28.00;28.00;;;;;20.20;44.57;101640.84;5077439;27;45594;-63
2022/05/09 10:14:34;;;;;;;;;30.33;28.67;;;;;20.20;43.94;101624.81;5075621;27;45444;-63
2022/05/09 10:17:17;;;;;;;;;31.00;30.00;;;;;20.28;43.60;101633.22;5078604;27;46323;-63
2022/05/09 10:19:43;;;;;;;;;27.00;27.00;;;;;20.30;43.97;101621.50;5086358;27;45486;-66
2022/05/09 10:25:11;;;;;;;;;33.67;29.33;;;;;20.35;44.31;101628.41;5088937;27;45663;-64
2022/05/09 10:27:38;;;;;;;;;29.00;27.33;;;;;20.35;43.95;101615.88;5091314;27;46291;-65
2022/05/09 10:30:29;;;;;;;;;33.00;31.33;;;;;20.36;44.81;101611.41;5092472;27;45596;-63
2022/05/09 10:33:01;;;;;;;;;31.00;28.00;;;;;20.43;44.42;101618.09;5091541;27;45430;-63
2022/05/09 10:35:39;;;;;;;;;28.33;26.67;;;;;20.46;44.67;101617.91;5083784;27;45475;-63
2022/05/09 10:38:14;;;;;;;;;28.00;26.67;;;;;20.47;44.74;101612.47;5082936;27;46295;-63
2022/05/09 10:40:46;;;;;;;;;30.67;29.67;;;;;20.51;43.64;101608.66;5089907;27;45412;-65
2022/05/09 10:43:22;;;;;;;;;31.67;29.67;;;;;20.61;43.44;101611.66;5089990;27;45751;-65
2022/05/09 10:45:50;;;;;;;;;31.33;30.33;;;;;20.60;43.91;101593.03;5085703;27;45425;-64
2022/05/09 10:48:22;;;;;;;;;29.33;29.00;;;;;20.77;43.38;101608.91;5082012;27;45688;-64
2022/05/09 10:50:50;;;;;;;;;25.67;23.00;;;;;20.83;43.44;101607.66;5091646;27;45892;-64
2022/05/09 10:53:40;;;;;;;;;30.00;29.00;;;;;20.85;43.18;101608.44;5088922;27;45654;-65
2022/05/09 10:56:22;;;;;;;;;27.33;25.00;;;;;20.90;43.12;101606.31;5091639;27;45417;-63
2022/05/09 10:59:11;;;;;;;;;29.00;27.00;;;;;20.90;43.03;101595.63;5088395;27;45732;-65
2022/05/09 11:01:45;;;;;;;;;20.00;20.00;;;;;20.97;42.73;101596.97;5083881;27;46396;-66
2022/05/09 11:04:12;;;;;;;;;32.00;32.00;;;;;21.03;42.79;101590.34;5085337;27;45604;-65
2022/05/09 11:06:42;;;;;;;;;30.33;29.33;;;;;;;;5089101;27;45484;-64
2022/05/09 11:09:22;;;;;;;;;28.33;28.33;;;;;21.09;43.03;101596.19;5089064;27;45573;-66
2022/05/09 11:12:06;;;;;;;;;28.67;28.67;;;;;21.08;43.05;101599.81;5086982;27;45596;-65
2022/05/09 11:14:58;;;;;;;;;32.33;30.33;;;;;21.10;42.55;101584.53;5085867;27;45858;-66
2022/05/09 11:17:32;;;;;;;;;29.33;27.67;;;;;21.16;42.75;101591.28;5089284;27;45460;-66
2022/05/09 11:20:23;;;;;;;;;32.33;29.00;;;;;21.23;42.45;101591.78;5089671;27;45612;-64
2022/05/09 11:23:13;;;;;;;;;29.67;26.00;;;;;21.31;42.20;101582.28;5074924;28;45405;-64
2022/05/09 11:25:51;;;;;;;;;30.00;28.67;;;;;21.41;41.79;101585.25;5087666;27;45637;-65
2022/05/09 11:28:37;;;;;;;;;32.00;29.67;;;;;21.46;41.92;101582.28;5079890;27;45508;-64
2022/05/09 11:31:12;;;;;;;;;27.33;25.67;;;;;21.46;42.04;101582.28;5074108;27;46319;-64